Time;durP1;ratioP1;P1;durP2;ratioP2;P2;SDS_P1;SDS_P2;PMS_P1;PMS_P2;Temp;Humidity;BMP_temperature;BMP_pressure;BME280_temperature;BME280_humidity;BME280_pressure;Samples;Min_cycle;Max_cycle;Signal;HPM_P1;HPM_P2
2021/10/16 00:00:44;;;;;;;9.13;7.03;;;;;;;;;;5004743;28;20103;-53
2021/10/16 00:03:11;;;;;;;11.82;6.88;;;;;;;;;;5013700;28;20052;-52
2021/10/16 00:05:38;;;;;;;10.05;7.40;;;;;;;;;;5029215;28;20105;-53
2021/10/16 00:08:05;;;;;;;9.93;7.03;;;;;;;;;;5013689;28;20053;-54
2021/10/16 00:10:31;;;;;;;10.60;6.80;;;;;;;;;;5013904;28;20042;-52
2021/10/16 00:12:58;;;;;;;9.52;6.40;;;;;;;;;;5013628;28;20046;-51
2021/10/16 00:15:26;;;;;;;10.32;6.80;;;;;;;;;;5013178;28;20069;-54
2021/10/16 00:17:52;;;;;;;10.30;6.60;;;;;;;;;;5025599;28;20469;-50
2021/10/16 00:20:19;;;;;;;8.93;6.78;;;;;;;;;;4994463;28;20042;-55
2021/10/16 00:22:46;;;;;;;8.80;6.15;;;;;;;;;;4993437;28;20404;-55
2021/10/16 00:25:14;;;;;;;8.43;6.65;;;;;;;;;;5004413;28;20041;-56
2021/10/16 00:27:41;;;;;;;10.80;7.00;;;;;;;;;;5013302;28;20042;-56
2021/10/16 00:30:08;;;;;;;10.05;7.32;;;;;;;;;;5013405;28;20096;-56
2021/10/16 00:32:35;;;;;;;14.23;6.72;;;;;;;;;;5028685;28;20046;-56
2021/10/16 00:35:02;;;;;;;10.63;7.18;;;;;;;;;;5022012;28;20041;-56
2021/10/16 00:37:29;;;;;;;12.88;8.02;;;;;;;;;;5034419;28;20376;-56
2021/10/16 00:39:56;;;;;;;12.68;7.45;;;;;;;;;;5029989;28;20045;-54
2021/10/16 00:42:23;;;;;;;12.93;7.45;;;;;;;;;;5032972;28;20083;-57
2021/10/16 00:44:50;;;;;;;9.35;6.88;;;;;;;;;;5040357;28;20121;-54
2021/10/16 00:47:18;;;;;;;10.35;7.28;;;;;;;;;;5011371;28;20056;-56
2021/10/16 00:49:45;;;;;;;11.25;7.55;;;;;;;;;;4992267;28;20042;-54
2021/10/16 00:52:12;;;;;;;11.48;8.05;;;;;;;;;;4993436;28;20046;-51
2021/10/16 00:54:39;;;;;;;11.68;7.45;;;;;;;;;;4998338;28;20037;-55
2021/10/16 00:57:07;;;;;;;9.85;7.88;;;;;;;;;;5012985;28;20046;-57
2021/10/16 00:59:35;;;;;;;11.90;8.40;;;;;;;;;;5011392;28;20034;-56
2021/10/16 01:02:01;;;;;;;12.45;7.97;;;;;;;;;;5012685;28;20064;-56
2021/10/16 01:04:28;;;;;;;13.15;9.52;;;;;;;;;;5012221;28;20042;-57
2021/10/16 01:07:04;;;;;;;11.73;8.20;;;;;;;;;;5012551;28;20050;-56
2021/10/16 01:09:31;;;;;;;12.00;8.73;;;;;;;;;;5027852;28;20073;-57
2021/10/16 01:11:58;;;;;;;15.00;9.15;;;;;;;;;;5011556;28;20049;-55
2021/10/16 01:14:25;;;;;;;15.45;9.20;;;;;;;;;;5012171;28;20042;-57
2021/10/16 01:16:53;;;;;;;12.88;9.15;;;;;;;;;;5012519;28;20030;-57
2021/10/16 01:19:21;;;;;;;15.02;10.40;;;;;;;;;;5027578;28;20515;-56
2021/10/16 01:21:49;;;;;;;12.80;9.32;;;;;;;;;;5011386;28;20080;-56
2021/10/16 01:24:18;;;;;;;15.05;10.02;;;;;;;;;;5026866;28;20037;-57
2021/10/16 01:26:46;;;;;;;14.25;9.43;;;;;;;;;;5012556;28;20124;-57
2021/10/16 01:29:19;;;;;;;12.93;9.85;;;;;;;;;;5012293;28;20084;-56
2021/10/16 01:31:46;;;;;;;;;;;;;;;;;;5012530;28;20053;-56
2021/10/16 01:34:13;;;;;;;15.20;9.20;;;;;;;;;;5010550;28;19928;-56
2021/10/16 01:36:44;;;;;;;14.77;9.00;;;;;;;;;;5012013;28;20124;-57
2021/10/16 01:39:12;;;;;;;13.60;9.07;;;;;;;;;;5011593;28;20566;-56
2021/10/16 01:41:41;;;;;;;15.40;9.95;;;;;;;;;;5010710;28;20092;-55
2021/10/16 01:44:11;;;;;;;13.38;9.60;;;;;;;;;;5026898;28;20081;-57
2021/10/16 01:46:38;;;;;;;12.52;8.25;;;;;;;;;;5027074;28;20128;-56
2021/10/16 01:49:08;;;;;;;12.50;8.45;;;;;;;;;;5027391;28;20538;-56
2021/10/16 01:51:35;;;;;;;12.07;8.57;;;;;;;;;;5027581;28;20527;-57
2021/10/16 01:54:02;;;;;;;10.40;8.32;;;;;;;;;;5010456;28;20038;-57
2021/10/16 01:56:29;;;;;;;12.50;8.18;;;;;;;;;;5010514;28;20117;-54
2021/10/16 01:58:56;;;;;;;11.35;9.20;;;;;;;;;;5011697;28;20125;-57
2021/10/16 02:01:34;;;;;;;16.13;8.93;;;;;;;;;;5007381;28;20415;-57
2021/10/16 02:04:16;;;;;;;12.50;8.60;;;;;;;;;;5007184;28;20064;-57
2021/10/16 02:06:43;;;;;;;12.88;8.80;;;;;;;;;;5026761;28;20059;-57
2021/10/16 02:09:10;;;;;;;11.55;8.48;;;;;;;;;;5007175;28;20054;-56
2021/10/16 02:11:39;;;;;;;10.88;8.25;;;;;;;;;;5007358;28;20162;-57
2021/10/16 02:14:07;;;;;;;10.75;7.50;;;;;;;;;;5006888;28;20034;-56
2021/10/16 02:16:34;;;;;;;12.77;7.85;;;;;;;;;;5025670;28;20126;-56
2021/10/16 02:19:09;;;;;;;13.00;8.32;;;;;;;;;;4994025;28;20034;-55
2021/10/16 02:21:37;;;;;;;12.82;7.90;;;;;;;;;;4975035;28;20068;-57
2021/10/16 02:24:05;;;;;;;12.23;8.57;;;;;;;;;;4974602;28;20109;-56
2021/10/16 02:26:40;;;;;;;10.48;8.10;;;;;;;;;;5025885;28;20064;-57
2021/10/16 02:29:11;;;;;;;13.10;8.38;;;;;;;;;;5010348;28;20046;-56
2021/10/16 02:31:45;;;;;;;14.18;10.35;;;;;;;;;;4990751;28;20073;-56
2021/10/16 02:34:12;;;;;;;15.43;9.82;;;;;;;;;;4990187;28;20141;-56
2021/10/16 02:36:46;;;;;;;14.27;9.68;;;;;;;;;;5009917;28;20045;-57
2021/10/16 02:39:12;;;;;;;15.13;9.73;;;;;;;;;;5011158;28;20065;-56
2021/10/16 02:41:39;;;;;;;13.55;9.32;;;;;;;;;;5010128;28;20038;-57
2021/10/16 02:44:06;;;;;;;14.60;8.93;;;;;;;;;;5009739;28;20073;-56
2021/10/16 02:46:41;;;;;;;16.08;10.25;;;;;;;;;;5009643;28;20057;-55
2021/10/16 02:49:08;;;;;;;15.27;9.82;;;;;;;;;;5023651;28;20045;-55
2021/10/16 02:51:35;;;;;;;13.43;9.52;;;;;;;;;;5010490;28;20049;-52
2021/10/16 02:54:02;;;;;;;13.57;9.65;;;;;;;;;;5010149;28;20038;-52
2021/10/16 02:56:30;;;;;;;14.77;9.93;;;;;;;;;;5023091;28;20096;-52
2021/10/16 02:59:05;;;;;;;13.02;9.07;;;;;;;;;;4994100;28;20066;-55
2021/10/16 03:01:39;;;;;;;15.30;9.90;;;;;;;;;;5010458;28;20492;-56
2021/10/16 03:04:06;;;;;;;12.95;10.07;;;;;;;;;;4993682;28;20046;-55
2021/10/16 03:06:36;;;;;;;13.68;9.70;;;;;;;;;;5010847;28;20049;-56
2021/10/16 03:09:03;;;;;;;12.77;8.93;;;;;;;;;;5026745;28;20042;-55
2021/10/16 03:11:32;;;;;;;15.43;9.98;;;;;;;;;;5026533;28;20498;-56
2021/10/16 03:13:59;;;;;;;15.00;10.35;;;;;;;;;;5009884;28;20046;-56
2021/10/16 03:16:27;;;;;;;14.40;10.27;;;;;;;;;;5029695;28;20212;-58
2021/10/16 03:18:54;;;;;;;14.00;9.68;;;;;;;;;;5025306;28;20491;-57
2021/10/16 03:21:22;;;;;;;13.82;9.05;;;;;;;;;;5010126;28;20396;-56
2021/10/16 03:23:49;;;;;;;13.18;9.13;;;;;;;;;;5018361;28;20444;-58
2021/10/16 03:26:16;;;;;;;14.35;9.18;;;;;;;;;;5029519;28;20072;-57
2021/10/16 03:28:43;;;;;;;13.10;9.13;;;;;;;;;;5012278;28;20049;-56
2021/10/16 03:31:10;;;;;;;14.57;9.48;;;;;;;;;;5007129;28;20097;-57
2021/10/16 03:33:36;;;;;;;13.82;9.73;;;;;;;;;;5009560;28;20046;-57
2021/10/16 03:36:04;;;;;;;13.20;9.38;;;;;;;;;;5022740;28;20152;-57
2021/10/16 03:38:30;;;;;;;13.93;9.23;;;;;;;;;;5040305;28;20034;-54
2021/10/16 03:40:58;;;;;;;12.77;9.57;;;;;;;;;;5012814;28;20050;-55
2021/10/16 03:43:25;;;;;;;13.07;9.65;;;;;;;;;;5013796;28;20503;-57
2021/10/16 03:45:52;;;;;;;11.60;8.85;;;;;;;;;;5012617;28;20531;-56
2021/10/16 03:48:19;;;;;;;15.45;10.05;;;;;;;;;;5009523;28;20478;-56
2021/10/16 03:50:47;;;;;;;11.75;9.32;;;;;;;;;;4994283;28;20562;-57
2021/10/16 03:53:16;;;;;;;13.48;10.10;;;;;;;;;;5010590;28;20052;-57
2021/10/16 03:55:43;;;;;;;14.50;10.68;;;;;;;;;;5025339;28;20097;-57
2021/10/16 03:58:10;;;;;;;15.77;10.35;;;;;;;;;;4994092;28;20495;-56
2021/10/16 04:00:37;;;;;;;14.18;10.77;;;;;;;;;;5004823;28;20038;-56
2021/10/16 04:03:05;;;;;;;12.35;9.60;;;;;;;;;;5012313;28;20042;-56
2021/10/16 04:05:34;;;;;;;15.98;10.75;;;;;;;;;;5012236;28;20491;-58
2021/10/16 04:08:05;;;;;;;20.33;11.80;;;;;;;;;;5012213;28;20057;-57
2021/10/16 04:10:32;;;;;;;17.27;11.98;;;;;;;;;;5008933;28;20108;-56
2021/10/16 04:12:59;;;;;;;16.27;11.55;;;;;;;;;;5009133;28;20145;-56
2021/10/16 04:15:26;;;;;;;15.32;11.18;;;;;;;;;;4997614;28;20048;-58
2021/10/16 04:17:54;;;;;;;15.65;11.25;;;;;;;;;;5011898;28;20045;-58
2021/10/16 04:20:21;;;;;;;17.67;12.50;;;;;;;;;;5013089;28;20458;-57
2021/10/16 04:22:51;;;;;;;16.17;12.15;;;;;;;;;;5011948;28;20092;-58
2021/10/16 04:25:18;;;;;;;15.23;11.23;;;;;;;;;;5011543;28;20125;-57
2021/10/16 04:27:44;;;;;;;19.55;10.90;;;;;;;;;;5025334;28;20129;-56
2021/10/16 04:30:24;;;;;;;16.25;11.90;;;;;;;;;;5003222;28;20038;-57
2021/10/16 04:32:51;;;;;;;17.20;12.50;;;;;;;;;;5011947;28;20038;-56
2021/10/16 04:35:18;;;;;;;18.27;13.73;;;;;;;;;;5011405;28;20124;-57
2021/10/16 04:37:45;;;;;;;19.27;12.70;;;;;;;;;;5012686;28;20132;-58
2021/10/16 04:40:17;;;;;;;20.05;13.30;;;;;;;;;;5012846;28;20069;-56
2021/10/16 04:42:44;;;;;;;24.02;15.25;;;;;;;;;;5011866;28;20088;-56
2021/10/16 04:45:12;;;;;;;17.02;12.40;;;;;;;;;;5027723;28;20065;-58
2021/10/16 04:47:39;;;;;;;19.33;12.95;;;;;;;;;;5011806;28;20104;-57
2021/10/16 04:50:06;;;;;;;20.33;13.13;;;;;;;;;;4995023;28;20053;-57
2021/10/16 04:52:33;;;;;;;18.23;12.57;;;;;;;;;;5008733;28;20053;-57
2021/10/16 04:55:06;;;;;;;19.67;12.27;;;;;;;;;;4992988;28;20035;-54
2021/10/16 04:57:33;;;;;;;16.25;11.55;;;;;;;;;;5000800;28;20045;-54
2021/10/16 05:00:00;;;;;;;15.20;10.85;;;;;;;;;;5004542;28;20559;-54
2021/10/16 05:02:30;;;;;;;17.85;11.27;;;;;;;;;;4991690;28;20121;-56
2021/10/16 05:04:56;;;;;;;19.20;12.88;;;;;;;;;;4991446;28;20138;-53
2021/10/16 05:07:23;;;;;;;21.05;13.25;;;;;;;;;;5010848;28;20092;-52
2021/10/16 05:09:51;;;;;;;18.45;12.77;;;;;;;;;;5008272;28;20052;-57
2021/10/16 05:12:18;;;;;;;17.40;12.43;;;;;;;;;;4991038;28;20744;-56
2021/10/16 05:14:46;;;;;;;18.20;12.80;;;;;;;;;;5020053;28;20052;-57
2021/10/16 05:17:12;;;;;;;18.42;13.38;;;;;;;;;;5027346;28;20636;-57
2021/10/16 05:19:39;;;;;;;19.80;12.23;;;;;;;;;;5012323;28;20081;-57
2021/10/16 05:22:06;;;;;;;18.95;12.68;;;;;;;;;;5011060;28;20094;-57
2021/10/16 05:24:35;;;;;;;16.50;12.27;;;;;;;;;;5027223;28;20042;-57
2021/10/16 05:27:02;;;;;;;17.77;12.32;;;;;;;;;;5012376;28;20045;-57
2021/10/16 05:29:29;;;;;;;17.65;12.07;;;;;;;;;;5010844;28;20061;-57
2021/10/16 05:31:57;;;;;;;18.60;12.60;;;;;;;;;;5010747;28;20061;-58
2021/10/16 05:34:24;;;;;;;18.38;13.48;;;;;;;;;;5030202;28;20052;-56
2021/10/16 05:36:52;;;;;;;24.48;13.15;;;;;;;;;;5015317;28;20048;-55
2021/10/16 05:39:19;;;;;;;19.17;12.82;;;;;;;;;;5011104;28;20037;-56
2021/10/16 05:41:48;;;;;;;17.48;12.00;;;;;;;;;;5010616;28;20046;-57
2021/10/16 05:44:15;;;;;;;18.35;12.77;;;;;;;;;;5026975;28;20042;-56
2021/10/16 05:46:42;;;;;;;20.33;12.75;;;;;;;;;;5011156;28;20046;-57
2021/10/16 05:49:09;;;;;;;19.95;14.32;;;;;;;;;;4992364;28;20042;-56
2021/10/16 05:51:36;;;;;;;21.50;14.05;;;;;;;;;;4991045;28;20038;-57
2021/10/16 05:54:03;;;;;;;20.05;13.15;;;;;;;;;;5007044;28;20137;-57
2021/10/16 05:56:30;;;;;;;19.75;12.98;;;;;;;;;;5025488;28;20439;-56
2021/10/16 05:58:59;;;;;;;20.65;14.00;;;;;;;;;;5011644;28;20041;-57
2021/10/16 06:01:26;;;;;;;19.80;14.23;;;;;;;;;;4993550;28;20508;-56
2021/10/16 06:03:56;;;;;;;17.90;12.73;;;;;;;;;;4990661;28;20049;-57
2021/10/16 06:06:23;;;;;;;19.77;13.20;;;;;;;;;;5000640;28;20056;-56
2021/10/16 06:08:50;;;;;;;24.73;13.52;;;;;;;;;;5004874;28;20510;-57
2021/10/16 06:11:17;;;;;;;18.55;13.27;;;;;;;;;;4990828;28;20122;-56
2021/10/16 06:13:44;;;;;;;22.20;14.88;;;;;;;;;;4991716;28;20116;-56
2021/10/16 06:16:11;;;;;;;20.52;14.45;;;;;;;;;;4998403;28;20096;-57
2021/10/16 06:18:45;;;;;;;18.10;13.27;;;;;;;;;;5011198;28;20168;-56
2021/10/16 06:21:13;;;;;;;20.52;14.07;;;;;;;;;;4987346;28;20042;-48
2021/10/16 06:23:43;;;;;;;21.77;15.50;;;;;;;;;;4987558;28;20051;-49
2021/10/16 06:26:12;;;;;;;24.85;15.35;;;;;;;;;;5010773;28;20050;-51
2021/10/16 06:28:40;;;;;;;22.83;15.13;;;;;;;;;;4989106;28;20074;-51
2021/10/16 06:31:10;;;;;;;26.25;16.63;;;;;;;;;;4958457;28;20050;-53
2021/10/16 06:33:36;;;;;;;22.58;16.27;;;;;;;;;;4956937;28;20409;-51
2021/10/16 06:36:03;;;;;;;23.75;15.48;;;;;;;;;;4976413;28;20483;-52
2021/10/16 06:38:45;;;;;;;24.38;15.82;;;;;;;;;;4999942;28;20041;-50
2021/10/16 06:41:12;;;;;;;20.38;15.05;;;;;;;;;;4976173;28;20066;-53
2021/10/16 06:44:18;;;;;;;24.75;16.73;;;;;;;;;;4954338;28;20055;-52
2021/10/16 06:47:03;;;;;;;22.38;14.57;;;;;;;;;;4939406;28;20055;-51
2021/10/16 06:49:33;;;;;;;22.55;15.00;;;;;;;;;;4941268;28;20047;-54
2021/10/16 06:52:00;;;;;;;22.15;15.27;;;;;;;;;;4957345;28;20059;-51
2021/10/16 06:54:28;;;;;;;22.60;15.32;;;;;;;;;;4958340;28;20105;-51
2021/10/16 06:56:55;;;;;;;23.35;15.63;;;;;;;;;;4959573;28;20467;-49
2021/10/16 06:59:24;;;;;;;23.33;16.08;;;;;;;;;;4972635;28;20066;-52
2021/10/16 07:01:51;;;;;;;25.13;16.52;;;;;;;;;;4972127;28;20483;-52
2021/10/16 07:04:27;;;;;;;23.23;16.17;;;;;;;;;;4971392;28;20046;-51
2021/10/16 07:06:57;;;;;;;29.42;16.52;;;;;;;;;;4956048;28;20044;-53
2021/10/16 07:09:31;;;;;;;22.35;15.90;;;;;;;;;;4963715;28;20039;-53
2021/10/16 07:11:58;;;;;;;22.27;15.13;;;;;;;;;;4976139;28;20046;-52
2021/10/16 07:14:25;;;;;;;23.30;16.05;;;;;;;;;;4975242;28;20240;-52
2021/10/16 07:16:53;;;;;;;22.63;15.15;;;;;;;;;;4974732;28;20035;-51
2021/10/16 07:19:20;;;;;;;25.85;15.40;;;;;;;;;;4959736;28;20043;-51
2021/10/16 07:21:47;;;;;;;24.33;15.85;;;;;;;;;;4975733;28;20043;-53
2021/10/16 07:24:14;;;;;;;24.17;15.75;;;;;;;;;;4974986;28;20046;-52
2021/10/16 07:26:40;;;;;;;25.52;15.32;;;;;;;;;;4971757;28;20039;-51
2021/10/16 07:29:07;;;;;;;25.00;15.88;;;;;;;;;;4971773;28;20054;-52
2021/10/16 07:31:34;;;;;;;24.25;14.57;;;;;;;;;;4975108;28;20140;-51
2021/10/16 07:34:01;;;;;;;24.13;15.93;;;;;;;;;;4974454;28;20049;-53
2021/10/16 07:36:34;;;;;;;24.15;16.15;;;;;;;;;;4973261;28;20054;-51
2021/10/16 07:39:02;;;;;;;22.48;15.27;;;;;;;;;;4994859;28;20038;-49
2021/10/16 07:41:30;;;;;;;22.15;15.02;;;;;;;;;;4990431;28;20042;-51
2021/10/16 07:43:56;;;;;;;22.38;15.93;;;;;;;;;;4994728;28;20042;-52
2021/10/16 07:46:23;;;;;;;23.42;16.45;;;;;;;;;;4959596;28;20062;-52
2021/10/16 07:48:50;;;;;;;20.75;14.85;;;;;;;;;;4955245;28;20163;-51
2021/10/16 07:51:17;;;;;;;20.42;14.23;;;;;;;;;;4971894;28;20053;-52
2021/10/16 07:53:44;;;;;;;20.63;15.57;;;;;;;;;;4975011;28;20047;-54
2021/10/16 07:56:10;;;;;;;19.27;14.90;;;;;;;;;;4963996;28;20462;-51
2021/10/16 07:58:39;;;;;;;26.73;16.02;;;;;;;;;;4965078;28;20507;-49
2021/10/16 08:01:06;;;;;;;23.52;15.75;;;;;;;;;;4959783;28;20077;-47
2021/10/16 08:03:33;;;;;;;23.73;15.88;;;;;;;;;;4954323;29;20051;-52
2021/10/16 08:06:00;;;;;;;23.05;16.15;;;;;;;;;;4955956;28;20057;-48
2021/10/16 08:08:28;;;;;;;27.00;17.17;;;;;;;;;;4954982;28;20559;-54
2021/10/16 08:10:56;;;;;;;25.02;15.63;;;;;;;;;;4981575;28;20035;-49
2021/10/16 08:13:25;;;;;;;24.20;16.48;;;;;;;;;;4955406;28;20144;-48
2021/10/16 08:15:52;;;;;;;23.58;16.25;;;;;;;;;;4956193;28;20039;-49
2021/10/16 08:18:19;;;;;;;24.48;16.70;;;;;;;;;;4956700;28;20488;-48
2021/10/16 08:20:47;;;;;;;23.90;17.08;;;;;;;;;;4966900;28;20035;-51
2021/10/16 08:23:13;;;;;;;25.17;16.45;;;;;;;;;;4970331;28;20047;-52
2021/10/16 08:25:41;;;;;;;23.38;16.13;;;;;;;;;;4956035;28;20049;-49
2021/10/16 08:28:11;;;;;;;22.95;15.80;;;;;;;;;;4973484;28;20049;-50
2021/10/16 08:30:39;;;;;;;23.52;15.30;;;;;;;;;;4973898;28;20035;-52
2021/10/16 08:33:06;;;;;;;22.35;14.32;;;;;;;;;;4974056;28;20054;-53
2021/10/16 08:35:33;;;;;;;21.60;15.05;;;;;;;;;;4974480;28;20370;-47
2021/10/16 08:38:00;;;;;;;21.17;15.57;;;;;;;;;;4974948;28;20556;-52
2021/10/16 08:40:27;;;;;;;20.90;14.75;;;;;;;;;;4969325;28;20567;-50
2021/10/16 08:42:54;;;;;;;21.30;16.13;;;;;;;;;;4974605;28;20051;-49
2021/10/16 08:45:21;;;;;;;22.95;15.38;;;;;;;;;;4966891;28;20051;-49
2021/10/16 08:47:48;;;;;;;25.27;16.80;;;;;;;;;;4959360;28;20093;-51
2021/10/16 08:50:16;;;;;;;24.55;16.48;;;;;;;;;;4956277;28;20051;-51
2021/10/16 08:52:43;;;;;;;23.55;16.70;;;;;;;;;;4967501;28;20047;-50
2021/10/16 08:55:10;;;;;;;23.70;15.93;;;;;;;;;;4963849;28;20133;-51
2021/10/16 08:57:42;;;;;;;21.25;14.73;;;;;;;;;;4971513;28;20494;-50
2021/10/16 09:00:27;;;;;;;22.13;15.15;;;;;;;;;;4955418;28;20130;-50
2021/10/16 09:02:54;;;;;;;19.50;14.52;;;;;;;;;;4966716;28;20047;-50
2021/10/16 09:05:21;;;;;;;21.75;14.18;;;;;;;;;;4956936;28;20119;-51
2021/10/16 09:07:48;;;;;;;19.17;14.80;;;;;;;;;;4964032;28;20051;-50
2021/10/16 09:10:19;;;;;;;23.05;15.63;;;;;;;;;;4966773;28;20418;-51
2021/10/16 09:12:46;;;;;;;19.50;14.05;;;;;;;;;;4964053;28;20106;-53
2021/10/16 09:15:23;;;;;;;21.30;15.32;;;;;;;;;;4964413;28;20042;-51
2021/10/16 09:18:16;;;;;;;20.05;14.77;;;;;;;;;;4959052;28;20054;-49
2021/10/16 09:20:42;;;;;;;22.58;14.73;;;;;;;;;;4970377;28;20039;-52
2021/10/16 09:23:10;;;;;;;19.85;14.13;;;;;;;;;;4971171;28;20441;-52
2021/10/16 09:25:37;;;;;;;19.25;14.00;;;;;;;;;;4954837;28;20047;-50
2021/10/16 09:28:14;;;;;;;18.73;14.45;;;;;;;;;;4959134;28;20428;-53
2021/10/16 09:30:47;;;;;;;19.25;12.98;;;;;;;;;;4960102;28;20043;-50
2021/10/16 09:33:14;;;;;;;18.83;13.55;;;;;;;;;;4969935;28;20062;-53
2021/10/16 09:35:41;;;;;;;19.08;12.52;;;;;;;;;;4973657;28;20042;-48
2021/10/16 09:38:08;;;;;;;20.55;13.10;;;;;;;;;;4975855;28;20039;-49
2021/10/16 09:40:39;;;;;;;18.25;11.93;;;;;;;;;;4972725;28;20078;-52
2021/10/16 09:43:22;;;;;;;18.23;12.88;;;;;;;;;;4979112;28;20050;-52
2021/10/16 09:46:08;;;;;;;18.40;12.27;;;;;;;;;;4979736;28;20045;-52
2021/10/16 09:48:36;;;;;;;15.57;11.70;;;;;;;;;;4959047;28;20531;-50
2021/10/16 09:51:03;;;;;;;18.77;12.57;;;;;;;;;;4957998;28;20594;-51
2021/10/16 09:53:30;;;;;;;15.73;12.63;;;;;;;;;;4955506;28;20597;-53
2021/10/16 09:55:57;;;;;;;16.02;11.75;;;;;;;;;;4964364;28;20040;-50
2021/10/16 09:58:24;;;;;;;15.95;11.98;;;;;;;;;;4953754;28;20074;-49
2021/10/16 10:00:54;;;;;;;15.65;11.35;;;;;;;;;;4959266;28;20145;-49
2021/10/16 10:03:24;;;;;;;14.75;11.63;;;;;;;;;;4969765;28;20051;-50
2021/10/16 10:05:51;;;;;;;15.55;10.60;;;;;;;;;;4971495;28;20074;-50
2021/10/16 10:08:19;;;;;;;14.50;10.60;;;;;;;;;;4972982;28;20046;-51
2021/10/16 10:10:47;;;;;;;13.57;10.43;;;;;;;;;;4972845;28;20125;-48
2021/10/16 10:13:16;;;;;;;13.68;10.13;;;;;;;;;;4960286;28;20050;-52
2021/10/16 10:15:44;;;;;;;14.30;10.73;;;;;;;;;;4977270;28;20522;-54
2021/10/16 10:20:58;;;;;;;13.98;10.02;;;;;;;;;;4970631;28;20129;-55
2021/10/16 10:23:25;;;;;;;12.23;9.48;;;;;;;;;;4953968;28;20135;-53
2021/10/16 10:26:11;;;;;;;12.77;8.52;;;;;;;;;;4959828;28;20118;-55
2021/10/16 10:28:52;;;;;;;13.00;8.38;;;;;;;;;;4965131;28;20422;-51
2021/10/16 10:31:43;;;;;;;14.18;9.35;;;;;;;;;;4975795;28;20061;-53
2021/10/16 10:34:31;;;;;;;11.73;8.05;;;;;;;;;;4966717;28;20488;-53
2021/10/16 10:37:01;;;;;;;11.25;7.63;;;;;;;;;;4981099;28;20039;-51
2021/10/16 10:39:28;;;;;;;11.63;7.40;;;;;;;;;;4964502;28;20039;-53
2021/10/16 10:41:55;;;;;;;11.48;7.57;;;;;;;;;;4962516;28;20046;-55
2021/10/16 10:44:42;;;;;;;11.32;8.23;;;;;;;;;;4953438;28;20071;-54
2021/10/16 10:47:31;;;;;;;9.60;7.15;;;;;;;;;;4967385;28;20046;-56
2021/10/16 10:50:03;;;;;;;10.95;7.38;;;;;;;;;;4971728;28;20086;-52
2021/10/16 10:52:48;;;;;;;11.13;7.82;;;;;;;;;;4970976;28;20051;-56
2021/10/16 10:55:15;;;;;;;10.80;7.63;;;;;;;;;;4965899;28;20110;-54
2021/10/16 10:57:42;;;;;;;10.60;7.60;;;;;;;;;;4958659;28;20034;-56
2021/10/16 11:00:10;;;;;;;9.40;7.35;;;;;;;;;;4968875;28;20039;-54
2021/10/16 11:02:38;;;;;;;11.10;7.88;;;;;;;;;;4957555;28;20074;-55
2021/10/16 11:05:23;;;;;;;11.90;8.95;;;;;;;;;;4958599;28;20129;-53
2021/10/16 11:07:50;;;;;;;11.13;8.07;;;;;;;;;;4965428;28;20085;-52
2021/10/16 11:10:17;;;;;;;8.90;7.18;;;;;;;;;;4965773;28;20045;-51
2021/10/16 11:12:44;;;;;;;12.23;7.63;;;;;;;;;;4968557;28;20049;-51
2021/10/16 11:15:12;;;;;;;11.18;8.40;;;;;;;;;;4963643;28;20070;-48
2021/10/16 11:17:43;;;;;;;10.98;7.95;;;;;;;;;;4957105;28;20043;-52
2021/10/16 11:20:16;;;;;;;10.75;7.28;;;;;;;;;;4957273;28;20047;-51
2021/10/16 11:22:50;;;;;;;12.70;7.57;;;;;;;;;;4956741;28;20039;-50
2021/10/16 11:25:22;;;;;;;10.27;8.18;;;;;;;;;;4956305;28;20090;-50
2021/10/16 11:28:01;;;;;;;10.02;7.45;;;;;;;;;;4970542;28;20082;-48
2021/10/16 11:30:28;;;;;;;10.55;7.65;;;;;;;;;;4960902;28;20370;-54
2021/10/16 11:33:08;;;;;;;10.55;7.30;;;;;;;;;;4971284;28;20049;-47
2021/10/16 11:35:36;;;;;;;10.20;6.65;;;;;;;;;;4975901;28;20051;-47
2021/10/16 11:38:03;;;;;;;11.93;7.80;;;;;;;;;;4973234;28;20047;-50
2021/10/16 11:40:31;;;;;;;8.48;6.20;;;;;;;;;;4966980;28;20054;-49
2021/10/16 11:42:59;;;;;;;9.95;6.95;;;;;;;;;;4956069;28;20067;-54
2021/10/16 11:45:27;;;;;;;7.28;5.80;;;;;;;;;;4974910;28;20066;-51
2021/10/16 11:47:58;;;;;;;8.80;5.95;;;;;;;;;;4974108;28;20047;-47
2021/10/16 11:50:25;;;;;;;7.30;6.07;;;;;;;;;;4975220;28;20097;-47
2021/10/16 11:53:05;;;;;;;6.95;5.95;;;;;;;;;;4974422;28;20095;-47
2021/10/16 11:55:32;;;;;;;7.57;5.47;;;;;;;;;;4963860;28;20046;-47
2021/10/16 11:58:03;;;;;;;6.03;4.88;;;;;;;;;;4972479;28;20047;-48
2021/10/16 12:00:33;;;;;;;7.05;5.57;;;;;;;;;;4971160;28;20061;-52
2021/10/16 12:03:06;;;;;;;6.80;5.03;;;;;;;;;;4975001;28;20119;-50
2021/10/16 12:05:34;;;;;;;6.03;5.00;;;;;;;;;;4974130;28;20034;-51
2021/10/16 12:08:14;;;;;;;7.43;5.22;;;;;;;;;;4973439;28;20472;-53
2021/10/16 12:10:46;;;;;;;6.10;5.22;;;;;;;;;;4956177;28;20055;-51
2021/10/16 12:13:13;;;;;;;7.00;5.40;;;;;;;;;;4957502;28;20070;-48
2021/10/16 12:15:42;;;;;;;7.88;5.13;;;;;;;;;;4970601;28;20051;-47
2021/10/16 12:18:23;;;;;;;6.10;5.00;;;;;;;;;;4971571;28;20129;-51
2021/10/16 12:20:54;;;;;;;5.47;4.65;;;;;;;;;;5037475;22;20405;-56
2021/10/16 12:23:23;;;;;;;5.95;4.20;;;;;;;;;;5031178;28;20140;-53
2021/10/16 12:25:51;;;;;;;6.75;4.63;;;;;;;;;;5031483;28;20041;-51
2021/10/16 12:28:18;;;;;;;6.03;4.32;;;;;;;;;;5025249;28;20128;-50
2021/10/16 12:30:58;;;;;;;8.77;4.95;;;;;;;;;;5026282;28;20045;-50
2021/10/16 12:33:25;;;;;;;5.43;4.18;;;;;;;;;;5031760;28;20048;-49
2021/10/16 12:35:59;;;;;;;6.90;4.97;;;;;;;;;;5031406;28;20046;-55
2021/10/16 12:38:26;;;;;;;7.90;4.75;;;;;;;;;;5029450;28;20037;-50
2021/10/16 12:40:54;;;;;;;7.57;5.15;;;;;;;;;;5032443;28;20038;-50
2021/10/16 12:43:28;;;;;;;6.10;4.72;;;;;;;;;;5031381;28;20038;-52
2021/10/16 12:45:55;;;;;;;6.95;4.82;;;;;;;;;;5030552;28;20495;-53
2021/10/16 12:48:35;;;;;;;6.82;4.60;;;;;;;;;;5013233;28;20041;-52
2021/10/16 12:51:03;;;;;;;6.75;4.80;;;;;;;;;;5023450;28;20041;-51
2021/10/16 12:53:50;;;;;;;7.45;4.80;;;;;;;;;;5031346;28;20041;-52
2021/10/16 12:56:16;;;;;;;6.03;4.32;;;;;;;;;;5028268;28;20079;-49
2021/10/16 12:58:43;;;;;;;7.07;5.18;;;;;;;;;;5030480;28;20083;-49
2021/10/16 13:01:10;;;;;;;5.63;4.30;;;;;;;;;;5027187;28;20450;-50
2021/10/16 13:03:37;;;;;;;6.10;4.30;;;;;;;;;;5030151;28;20057;-54
2021/10/16 13:06:03;;;;;;;6.55;4.38;;;;;;;;;;5030817;28;20065;-49
2021/10/16 13:08:30;;;;;;;4.95;3.70;;;;;;;;;;5032704;28;20050;-52
2021/10/16 13:10:59;;;;;;;6.07;4.45;;;;;;;;;;5024690;28;20073;-51
2021/10/16 13:13:26;;;;;;;4.93;4.22;;;;;;;;;;5030620;28;20050;-50
2021/10/16 13:15:52;;;;;;;6.32;3.58;;;;;;;;;;5031673;28;20099;-53
2021/10/16 13:18:19;;;;;;;8.35;4.68;;;;;;;;;;5021297;28;20156;-53
2021/10/16 13:20:47;;;;;;;6.43;3.70;;;;;;;;;;5031283;28;20037;-52
2021/10/16 13:23:13;;;;;;;6.13;3.85;;;;;;;;;;5031017;28;20640;-49
2021/10/16 13:25:41;;;;;;;7.65;3.60;;;;;;;;;;5031498;28;20499;-49
2021/10/16 13:28:07;;;;;;;5.70;4.28;;;;;;;;;;5017716;28;20045;-54
2021/10/16 13:30:34;;;;;;;7.07;4.30;;;;;;;;;;5026606;28;20051;-53
2021/10/16 13:33:01;;;;;;;5.70;4.07;;;;;;;;;;5030208;28;20051;-53
2021/10/16 13:35:28;;;;;;;5.55;3.80;;;;;;;;;;5029268;28;20057;-51
2021/10/16 13:37:55;;;;;;;7.18;3.85;;;;;;;;;;5031413;28;20045;-49
2021/10/16 13:40:22;;;;;;;4.45;3.42;;;;;;;;;;5019218;28;20125;-51
2021/10/16 13:42:49;;;;;;;6.50;3.70;;;;;;;;;;5012278;28;20500;-49
2021/10/16 13:45:17;;;;;;;5.32;3.40;;;;;;;;;;5016008;28;20042;-49
2021/10/16 13:47:44;;;;;;;4.38;3.33;;;;;;;;;;5030006;28;20164;-51
2021/10/16 13:50:11;;;;;;;5.60;3.40;;;;;;;;;;5019191;28;20133;-49
2021/10/16 13:52:38;;;;;;;4.38;2.80;;;;;;;;;;5027491;28;20045;-50
2021/10/16 13:55:05;;;;;;;4.88;3.25;;;;;;;;;;5030149;28;20041;-49
2021/10/16 13:57:32;;;;;;;4.15;3.13;;;;;;;;;;5025501;28;20034;-49
2021/10/16 13:59:59;;;;;;;4.20;3.15;;;;;;;;;;5021077;28;20144;-50
2021/10/16 14:02:26;;;;;;;4.28;3.05;;;;;;;;;;5029176;28;20056;-49
2021/10/16 14:04:53;;;;;;;4.57;2.85;;;;;;;;;;5030957;28;20045;-48
2021/10/16 14:07:20;;;;;;;5.53;3.60;;;;;;;;;;5030286;28;20136;-52
2021/10/16 14:09:46;;;;;;;4.32;3.25;;;;;;;;;;5013154;28;20089;-48
2021/10/16 14:12:13;;;;;;;5.75;3.55;;;;;;;;;;5031735;28;20556;-48
2021/10/16 14:14:40;;;;;;;4.15;3.10;;;;;;;;;;5028515;28;20045;-50
2021/10/16 14:17:07;;;;;;;4.32;3.38;;;;;;;;;;5026008;28;20042;-50
2021/10/16 14:19:34;;;;;;;5.28;3.20;;;;;;;;;;5011787;28;20041;-54
2021/10/16 14:22:02;;;;;;;4.45;2.88;;;;;;;;;;5031332;28;20517;-52
2021/10/16 14:24:29;;;;;;;4.35;2.83;;;;;;;;;;5030684;28;20045;-50
2021/10/16 14:26:56;;;;;;;6.05;3.05;;;;;;;;;;5022303;28;20336;-49
2021/10/16 14:29:22;;;;;;;4.30;2.80;;;;;;;;;;5026027;28;20113;-49
2021/10/16 14:31:49;;;;;;;4.05;2.58;;;;;;;;;;5028941;28;20072;-49
2021/10/16 14:34:16;;;;;;;4.28;2.83;;;;;;;;;;5027674;28;20116;-49
2021/10/16 14:36:43;;;;;;;5.10;3.03;;;;;;;;;;5031294;28;20045;-56
2021/10/16 14:39:10;;;;;;;3.80;2.78;;;;;;;;;;5016536;28;20069;-50
2021/10/16 14:41:36;;;;;;;5.75;3.20;;;;;;;;;;5028159;28;20042;-51